createdAt,value
2019-01-03T00:01:45.947Z,1.72
2019-01-03T00:05:12.024Z,2.45
2019-01-03T00:08:44.129Z,1.20
2019-01-03T00:12:17.716Z,1.70
2019-01-03T00:15:46.729Z,1.47
2019-01-03T00:19:05.020Z,1.72
2019-01-03T00:22:29.704Z,1.67
2019-01-03T00:25:54.296Z,1.92
2019-01-03T00:29:20.747Z,1.75
2019-01-03T00:32:50.051Z,1.77
2019-01-03T00:36:31.630Z,1.70
2019-01-03T00:40:00.874Z,1.55
2019-01-03T00:43:29.814Z,1.30
2019-01-03T00:47:01.889Z,0.88
2019-01-03T00:50:34.213Z,1.20
2019-01-03T00:54:09.444Z,1.15
2019-01-03T00:57:35.674Z,0.95
2019-01-03T01:01:00.649Z,1.25
2019-01-03T01:04:32.779Z,1.32
2019-01-03T01:08:14.306Z,0.80
2019-01-03T01:11:39.372Z,0.78
2019-01-03T01:15:11.235Z,0.62
2019-01-03T01:18:40.950Z,0.75
2019-01-03T01:22:09.751Z,0.70
2019-01-03T01:25:38.831Z,1.07
2019-01-03T01:29:10.889Z,1.02
2019-01-03T01:32:35.822Z,0.60
2019-01-03T01:36:04.811Z,0.70
2019-01-03T01:39:48.499Z,1.07
2019-01-03T01:43:24.341Z,0.95
2019-01-03T01:46:44.668Z,1.00
2019-01-03T01:50:10.903Z,0.80
2019-01-03T01:53:35.619Z,0.88
2019-01-03T01:57:05.354Z,0.98
2019-01-03T02:00:46.154Z,0.90
2019-01-03T02:04:19.668Z,0.72
2019-01-03T02:07:45.584Z,0.70
2019-01-03T02:11:10.950Z,0.53
2019-01-03T02:14:37.349Z,1.10
2019-01-03T02:18:07.687Z,0.80
2019-01-03T02:21:39.701Z,0.93
2019-01-03T02:25:02.146Z,1.02
2019-01-03T02:28:29.074Z,0.95
2019-01-03T02:31:54.104Z,0.78
2019-01-03T02:35:23.058Z,0.65
2019-01-03T02:38:58.370Z,1.15
2019-01-03T02:42:22.769Z,1.07
2019-01-03T02:46:00.750Z,0.78
2019-01-03T02:49:25.552Z,0.93
2019-01-03T02:52:51.918Z,0.82
2019-01-03T02:56:22.690Z,0.60
2019-01-03T02:59:48.648Z,0.88
2019-01-03T03:03:23.482Z,0.68
2019-01-03T03:06:48.620Z,0.85
2019-01-03T03:10:33.091Z,0.50
2019-01-03T03:13:59.460Z,1.05
2019-01-03T03:17:25.461Z,0.85
2019-01-03T03:20:57.640Z,1.05
2019-01-03T03:24:38.494Z,1.60
2019-01-03T03:28:03.213Z,1.60
2019-01-03T03:31:44.154Z,0.90
2019-01-03T03:35:20.346Z,0.70
2019-01-03T03:38:44.490Z,0.75
2019-01-03T03:42:18.394Z,0.80
2019-01-03T03:45:45.464Z,1.87
2019-01-03T03:49:18.088Z,1.40
2019-01-03T03:52:47.643Z,1.30
2019-01-03T03:56:20.074Z,1.00
2019-01-03T04:00:01.535Z,1.15
2019-01-03T04:03:26.697Z,1.20
2019-01-03T04:07:10.903Z,0.60
2019-01-03T04:10:45.223Z,3.08
2019-01-03T04:14:09.741Z,2.12
2019-01-03T04:17:27.689Z,1.62
2019-01-03T04:20:52.334Z,1.87
2019-01-03T04:24:27.819Z,1.37
2019-01-03T04:27:53.951Z,1.47
2019-01-03T04:31:20.103Z,1.25
2019-01-03T04:34:47.812Z,1.50
2019-01-03T04:38:17.253Z,1.40
2019-01-03T04:41:43.412Z,1.55
2019-01-03T04:45:08.643Z,2.05
2019-01-03T04:48:32.188Z,2.22
2019-01-03T04:52:13.218Z,0.95
2019-01-03T04:55:38.089Z,1.30
2019-01-03T04:59:06.866Z,1.32
2019-01-03T05:02:38.676Z,1.40
2019-01-03T05:06:10.560Z,0.80
2019-01-03T05:09:34.919Z,1.32
2019-01-03T05:13:04.559Z,1.20
2019-01-03T05:16:28.905Z,1.50
2019-01-03T05:19:53.166Z,1.92
2019-01-03T05:23:17.715Z,1.12
2019-01-03T05:26:59.132Z,2.15
2019-01-03T05:30:32.140Z,1.57
2019-01-03T05:34:04.939Z,1.77
2019-01-03T05:37:29.399Z,4.92
2019-01-03T05:40:54.708Z,1.95
2019-01-03T05:44:19.235Z,1.32
2019-01-03T05:47:45.122Z,2.87
2019-01-03T05:51:11.846Z,2.20
2019-01-03T05:54:36.582Z,1.62
2019-01-03T05:58:08.831Z,1.52
2019-01-03T06:01:38.140Z,1.20
2019-01-03T06:05:07.751Z,1.22
2019-01-03T06:08:32.297Z,1.50
2019-01-03T06:12:01.233Z,1.50
2019-01-03T06:15:30.076Z,1.45
2019-01-03T06:18:54.504Z,1.02
2019-01-03T06:22:23.362Z,2.10
2019-01-03T06:25:49.230Z,1.50
2019-01-03T06:29:23.611Z,1.85
2019-01-03T06:32:48.241Z,2.70
2019-01-03T06:36:05.039Z,4.67
2019-01-03T06:39:29.884Z,1.82
2019-01-03T06:42:59.243Z,1.57
2019-01-03T06:46:33.045Z,1.55
2019-01-03T06:49:57.781Z,2.10
2019-01-03T06:53:35.604Z,2.62
2019-01-03T06:57:01.505Z,2.35
2019-01-03T07:00:39.337Z,2.05
2019-01-03T07:04:13.965Z,3.35
2019-01-03T07:07:45.896Z,1.90
2019-01-03T07:11:11.707Z,1.70
2019-01-03T07:14:35.861Z,2.12
2019-01-03T07:18:00.610Z,2.10
2019-01-03T07:21:27.369Z,2.20
2019-01-03T07:25:02.107Z,2.10
2019-01-03T07:28:31.185Z,4.97
2019-01-03T07:32:00.803Z,5.30
2019-01-03T07:35:45.925Z,3.90
2019-01-03T07:39:10.007Z,2.40
2019-01-03T07:42:34.656Z,1.77
2019-01-03T07:46:12.373Z,5.08
2019-01-03T07:49:41.790Z,6.12
2019-01-03T07:53:10.346Z,8.48
2019-01-03T07:56:51.545Z,4.78
2019-01-03T08:00:17.631Z,2.55
2019-01-03T08:03:55.585Z,4.08
2019-01-03T08:07:20.304Z,3.35
2019-01-03T08:10:46.134Z,10.93
2019-01-03T08:14:10.795Z,10.03
2019-01-03T08:17:35.244Z,6.90
2019-01-03T08:21:19.222Z,5.95
2019-01-03T08:24:48.381Z,5.92
2019-01-03T08:28:17.727Z,6.30
2019-01-03T08:31:50.612Z,6.50
2019-01-03T08:35:15.776Z,7.47
2019-01-03T08:38:41.982Z,6.60
2019-01-03T08:41:51.135Z,13.35
2019-01-03T08:45:18.910Z,10.58
2019-01-03T08:48:51.126Z,9.05
2019-01-03T08:52:26.179Z,8.28
2019-01-03T08:55:50.898Z,6.85
2019-01-03T08:59:31.791Z,9.18
2019-01-03T09:03:02.311Z,6.05
2019-01-03T09:06:35.088Z,5.83
2019-01-03T09:10:04.276Z,3.98
2019-01-03T09:13:33.900Z,2.62
2019-01-03T09:17:06.102Z,2.52
2019-01-03T09:20:44.213Z,2.98
2019-01-03T09:24:16.249Z,2.20
2019-01-03T09:27:40.959Z,1.92
2019-01-03T09:31:07.539Z,2.27
2019-01-03T09:34:39.738Z,1.85
2019-01-03T09:38:04.311Z,1.70
2019-01-03T09:41:36.091Z,1.67
2019-01-03T09:44:46.397Z,1.67
2019-01-03T09:47:53.380Z,1.90
2019-01-03T09:51:00.873Z,2.40
2019-01-03T09:54:07.887Z,1.87
2019-01-03T09:57:15.175Z,1.75
2019-01-03T10:00:22.054Z,1.80
2019-01-03T10:03:28.988Z,2.30
2019-01-03T10:06:35.835Z,2.05
2019-01-03T10:09:42.710Z,2.80
2019-01-03T10:12:49.628Z,2.15
2019-01-03T10:15:56.509Z,2.00
2019-01-03T10:19:03.355Z,2.10
2019-01-03T10:22:10.221Z,2.90
2019-01-03T10:25:17.023Z,3.70
2019-01-03T10:28:24.103Z,2.90
2019-01-03T10:31:31.018Z,2.45
2019-01-03T10:34:37.874Z,2.65
2019-01-03T10:37:44.809Z,2.37
2019-01-03T10:40:52.472Z,3.70
2019-01-03T10:44:01.758Z,2.77
2019-01-03T10:47:08.942Z,3.60
2019-01-03T10:50:16.341Z,3.25
2019-01-03T10:53:23.325Z,3.30
2019-01-03T10:56:30.374Z,3.87
2019-01-03T10:59:37.258Z,3.42
2019-01-03T11:02:45.017Z,4.42
2019-01-03T11:05:51.901Z,3.35
2019-01-03T11:08:58.824Z,3.17
2019-01-03T11:12:06.735Z,3.50
2019-01-03T11:15:13.971Z,3.12
2019-01-03T11:18:21.516Z,2.95
2019-01-03T11:21:29.028Z,4.33
2019-01-03T11:24:37.267Z,3.50
2019-01-03T11:27:46.493Z,3.30
2019-01-03T11:30:53.354Z,4.35
2019-01-03T11:34:00.227Z,4.62
2019-01-03T11:37:07.585Z,4.62
2019-01-03T11:40:14.922Z,4.37
2019-01-03T11:43:22.276Z,4.92
2019-01-03T11:46:29.243Z,4.72
2019-01-03T11:49:36.234Z,4.00
2019-01-03T11:52:44.146Z,4.35
2019-01-03T11:55:51.362Z,5.45
2019-01-03T11:58:58.466Z,4.50
2019-01-03T12:02:05.695Z,4.83
2019-01-03T12:05:14.059Z,5.40
2019-01-03T12:08:21.260Z,5.10
2019-01-03T12:11:28.234Z,5.33
2019-01-03T12:14:35.133Z,4.58
2019-01-03T12:17:43.900Z,5.25
2019-01-03T12:20:50.846Z,5.25
2019-01-03T12:23:57.917Z,4.87
2019-01-03T12:27:04.879Z,5.53
2019-01-03T12:30:12.406Z,4.50
2019-01-03T12:33:19.448Z,4.60
2019-01-03T12:36:26.453Z,4.45
2019-01-03T12:39:33.554Z,4.40
2019-01-03T12:42:40.639Z,3.98
2019-01-03T12:45:49.141Z,3.15
2019-01-03T12:48:56.322Z,3.42
2019-01-03T12:52:03.245Z,3.30
2019-01-03T12:55:10.306Z,3.42
2019-01-03T12:58:18.863Z,2.92
2019-01-03T13:01:25.920Z,3.20
2019-01-03T13:04:33.425Z,3.77
2019-01-03T13:07:40.548Z,3.10
2019-01-03T13:10:47.602Z,3.77
2019-01-03T13:13:54.816Z,3.67
2019-01-03T13:17:02.243Z,3.65
2019-01-03T13:20:09.702Z,3.60
2019-01-03T13:23:17.046Z,3.77
2019-01-03T13:26:24.000Z,3.55
2019-01-03T13:29:30.865Z,3.83
2019-01-03T13:32:39.493Z,3.33
2019-01-03T13:35:47.165Z,3.80
2019-01-03T13:38:56.705Z,4.67
2019-01-03T13:42:06.697Z,3.22
2019-01-03T13:45:13.733Z,3.22
2019-01-03T13:48:21.137Z,3.27
2019-01-03T13:51:28.412Z,4.70
2019-01-03T13:54:35.850Z,3.58
2019-01-03T13:57:42.806Z,3.83
2019-01-03T14:00:49.783Z,4.25
2019-01-03T14:03:56.734Z,4.15
2019-01-03T14:07:03.755Z,4.87
2019-01-03T14:10:10.828Z,3.52
2019-01-03T14:13:20.936Z,4.12
2019-01-03T14:16:27.992Z,5.25
2019-01-03T14:19:35.038Z,5.28
2019-01-03T14:22:42.377Z,4.78
2019-01-03T14:25:49.539Z,3.52
2019-01-03T14:28:56.573Z,3.65
2019-01-03T14:32:05.323Z,3.35
2019-01-03T14:35:12.278Z,3.72
2019-01-03T14:38:19.569Z,4.08
2019-01-03T14:41:26.523Z,4.25
2019-01-03T14:44:33.718Z,4.25
2019-01-03T14:47:40.954Z,5.42
2019-01-03T14:50:48.400Z,3.83
2019-01-03T14:53:55.330Z,4.28
2019-01-03T14:57:02.467Z,5.40
2019-01-03T15:00:15.378Z,4.58
2019-01-03T15:03:22.707Z,4.10
2019-01-03T15:06:29.858Z,4.20
2019-01-03T15:09:38.296Z,3.77
2019-01-03T15:12:46.060Z,4.37
2019-01-03T15:15:53.541Z,4.72
2019-01-03T15:19:00.915Z,6.35
2019-01-03T15:22:07.799Z,7.37
2019-01-03T15:25:18.289Z,11.60
2019-01-03T15:28:25.222Z,7.92
2019-01-03T15:31:32.283Z,8.55
2019-01-03T15:34:39.861Z,6.40
2019-01-03T15:37:48.245Z,6.00
2019-01-03T15:40:58.399Z,4.92
2019-01-03T15:44:05.492Z,7.42
2019-01-03T15:47:12.773Z,5.53
2019-01-03T15:50:19.923Z,6.10
2019-01-03T15:53:27.082Z,7.05
2019-01-03T15:56:34.529Z,6.40
2019-01-03T15:59:41.736Z,5.78
2019-01-03T16:02:50.123Z,5.60
2019-01-03T16:05:57.267Z,5.55
2019-01-03T16:09:05.725Z,7.22
2019-01-03T16:12:15.862Z,5.65
2019-01-03T16:15:24.432Z,7.00
2019-01-03T16:18:31.458Z,6.15
2019-01-03T16:21:38.748Z,4.90
2019-01-03T16:24:46.159Z,4.35
2019-01-03T16:27:55.127Z,5.53
2019-01-03T16:31:02.203Z,3.17
2019-01-03T16:34:09.502Z,4.92
2019-01-03T16:37:16.716Z,3.02
2019-01-03T16:40:23.918Z,3.62
2019-01-03T16:43:31.045Z,3.52
2019-01-03T16:46:38.506Z,6.25
2019-01-03T16:49:45.863Z,7.20
2019-01-03T16:52:53.544Z,8.23
2019-01-03T16:56:00.707Z,5.53
2019-01-03T16:59:07.995Z,6.72
2019-01-03T17:02:15.279Z,4.85
2019-01-03T17:05:22.462Z,5.53
2019-01-03T17:08:30.211Z,4.78
2019-01-03T17:11:37.661Z,6.62
2019-01-03T17:14:44.818Z,6.78
2019-01-03T17:17:51.943Z,8.00
2019-01-03T17:20:59.230Z,6.65
2019-01-03T17:24:06.465Z,5.60
2019-01-03T17:27:13.728Z,5.92
2019-01-03T17:30:20.721Z,6.83
2019-01-03T17:33:27.880Z,5.08
2019-01-03T17:36:35.201Z,6.50
2019-01-03T17:39:42.298Z,5.83
2019-01-03T17:42:49.400Z,5.28
2019-01-03T17:45:56.560Z,4.83
2019-01-03T17:49:05.043Z,6.17
2019-01-03T17:52:12.439Z,10.08
2019-01-03T17:55:19.638Z,5.90
2019-01-03T17:58:26.917Z,4.83
2019-01-03T18:01:33.984Z,8.53
2019-01-03T18:04:41.057Z,6.47
2019-01-03T18:08:03.718Z,14.60
2019-01-03T18:11:11.130Z,9.95
2019-01-03T18:14:18.248Z,6.22
2019-01-03T18:17:25.669Z,6.30
2019-01-03T18:20:33.200Z,8.48
2019-01-03T18:23:40.370Z,7.17
2019-01-03T18:26:47.605Z,9.03
2019-01-03T18:29:56.555Z,7.75
2019-01-03T18:33:03.802Z,8.68
2019-01-03T18:36:10.850Z,9.45
2019-01-03T18:39:18.496Z,8.93
2019-01-03T18:42:25.577Z,8.38
2019-01-03T18:45:32.641Z,6.67
2019-01-03T18:48:40.051Z,9.30
2019-01-03T18:51:48.544Z,13.70
2019-01-03T18:54:56.039Z,11.50
2019-01-03T18:58:03.262Z,11.83
2019-01-03T19:01:10.476Z,8.78
2019-01-03T19:04:20.938Z,7.80
2019-01-03T19:07:28.144Z,7.90
2019-01-03T19:10:35.497Z,7.30
2019-01-03T19:13:42.715Z,8.83
2019-01-03T19:16:51.371Z,8.88
2019-01-03T19:19:58.721Z,6.97
2019-01-03T19:23:06.304Z,7.15
2019-01-03T19:26:13.845Z,9.15
2019-01-03T19:29:22.155Z,8.50
2019-01-03T19:32:29.285Z,9.75
2019-01-03T19:35:36.861Z,7.00
2019-01-03T19:38:45.122Z,5.97
2019-01-03T19:41:52.795Z,7.35
2019-01-03T19:44:59.857Z,5.97
2019-01-03T19:48:06.969Z,5.15
2019-01-03T19:51:14.360Z,6.05
2019-01-03T19:54:21.860Z,6.08
2019-01-03T19:57:28.938Z,5.35
2019-01-03T20:00:36.253Z,5.83
2019-01-03T20:03:43.315Z,4.75
2019-01-03T20:06:50.632Z,5.30
2019-01-03T20:09:57.827Z,5.83
2019-01-03T20:13:05.277Z,5.03
2019-01-03T20:16:12.988Z,4.37
2019-01-03T20:19:20.109Z,4.78
2019-01-03T20:22:27.347Z,4.30
2019-01-03T20:25:34.731Z,6.05
2019-01-03T20:28:41.883Z,4.72
2019-01-03T20:31:49.184Z,5.37
2019-01-03T20:34:56.455Z,4.10
2019-01-03T20:38:04.053Z,5.28
2019-01-03T20:41:11.209Z,4.45
2019-01-03T20:44:18.936Z,5.25
2019-01-03T20:47:29.228Z,5.47
2019-01-03T20:50:37.642Z,4.60
2019-01-03T20:53:44.915Z,4.08
2019-01-03T20:56:52.352Z,5.40
2019-01-03T20:59:59.895Z,4.87
2019-01-03T21:03:07.448Z,4.47
2019-01-03T21:06:14.620Z,4.75
2019-01-03T21:09:21.924Z,11.73
2019-01-03T21:12:29.406Z,5.62
2019-01-03T21:15:40.999Z,6.20
2019-01-03T21:18:48.390Z,6.45
2019-01-03T21:21:55.529Z,5.83
2019-01-03T21:25:02.829Z,6.60
2019-01-03T21:28:10.424Z,6.20
2019-01-03T21:31:18.055Z,6.87
2019-01-03T21:34:25.336Z,5.53
2019-01-03T21:37:32.778Z,6.22
2019-01-03T21:40:39.920Z,5.67
2019-01-03T21:43:47.184Z,6.17
2019-01-03T21:46:54.558Z,5.15
2019-01-03T21:50:01.748Z,6.33
2019-01-03T21:53:09.113Z,5.03
2019-01-03T21:56:17.564Z,6.45
2019-01-03T21:59:24.951Z,5.47
2019-01-03T22:02:32.103Z,6.33
2019-01-03T22:05:39.229Z,4.70
2019-01-03T22:08:46.864Z,5.97
2019-01-03T22:11:53.893Z,5.78
2019-01-03T22:15:00.956Z,6.15
2019-01-03T22:18:09.220Z,7.05
2019-01-03T22:21:16.294Z,5.03
2019-01-03T22:24:23.421Z,5.80
2019-01-03T22:27:30.428Z,5.40
2019-01-03T22:30:37.536Z,6.25
2019-01-03T22:33:44.665Z,5.85
2019-01-03T22:36:53.269Z,5.50
2019-01-03T22:40:00.379Z,6.60
2019-01-03T22:43:07.651Z,5.33
2019-01-03T22:46:15.025Z,5.30
2019-01-03T22:49:22.069Z,5.12
2019-01-03T22:52:29.170Z,5.72
2019-01-03T22:55:36.443Z,6.03
2019-01-03T22:58:43.416Z,4.83
2019-01-03T23:01:50.603Z,6.05
2019-01-03T23:04:58.796Z,4.97
2019-01-03T23:08:05.894Z,4.65
2019-01-03T23:11:13.172Z,5.00
2019-01-03T23:14:20.217Z,5.20
2019-01-03T23:17:27.854Z,4.80
2019-01-03T23:20:34.979Z,6.10
2019-01-03T23:23:42.089Z,5.20
2019-01-03T23:26:49.383Z,6.45
2019-01-03T23:29:56.463Z,7.17
2019-01-03T23:33:03.593Z,6.28
2019-01-03T23:36:10.862Z,5.50
2019-01-03T23:39:17.904Z,5.92
2019-01-03T23:42:25.058Z,5.28
2019-01-03T23:45:32.277Z,5.83
2019-01-03T23:48:39.539Z,6.10
2019-01-03T23:51:46.674Z,7.47
2019-01-03T23:54:53.718Z,6.37
2019-01-03T23:58:00.843Z,5.70
